Flight Track Log - Related Links

Times and Time Zones

All times are in EDT time to prevent confusion due to time zone crossing. See the BJS542 flight status page for this flight to view local times or setup timezone preferences in your user account.

Time Position Orientation Groundspeed Altitude Reporting Facility
EDT Latitude Longitude Course Direction KTS MPH feet Rate Location/Type
Tue 02:15:14 PM 39.0500 -84.4333 192° South 204 235 2,500  Level Cincinnati TRACON
Tue 02:16:14 PM 38.9833 -84.4667 201° Southwest 250 288 6,600 3,500 Climbing Cincinnati TRACON
Tue 02:18:14 PM 38.8256 -84.5336 198° South 329 379 13,000 2,110 Climbing Indianapolis Center
Tue 02:19:16 PM 38.7325 -84.5722 198° South 347 399 13,000 2,081 Level Indianapolis Center
Tue 02:20:18 PM 38.6319 -84.5714 180° South 361 415 17,300 3,561 Climbing Indianapolis Center
Tue 02:21:19 PM 38.5306 -84.5369 165° South 376 433 20,300 2,780 Climbing Indianapolis Center
Tue 02:22:21 PM 38.4200 -84.5072 168° South 404 465 23,000 2,661 Climbing Indianapolis Center
Tue 02:23:23 PM 38.3014 -84.4986 177° South 420 483 25,800 2,565 Climbing Indianapolis Center
Tue 02:24:25 PM 38.1800 -84.4883 176° South 434 499 28,300 2,341 Climbing Indianapolis Center
Tue 02:25:26 PM 38.0344 -84.4789 177° South 445 512 30,600 2,000 Climbing Indianapolis Center
Tue 02:26:28 PM 37.9078 -84.4569 172° South 458 527 32,400 1,645 Climbing Indianapolis Center
Tue 02:27:30 PM 37.7822 -84.4194 167° South 464 534 34,000 1,258 Climbing Indianapolis Center
Tue 02:28:32 PM 37.6544 -84.3847 168° South 468 539 35,000 484 Climbing Indianapolis Center
Tue 02:29:34 PM 37.5306 -84.3467 166° South 460 529 35,000  Level Indianapolis Center
Tue 02:30:35 PM 37.3839 -84.3039 167° South 463 533 35,000  Level Indianapolis Center
Tue 02:31:37 PM 37.2572 -84.2711 168° South 462 532 35,000  Level Indianapolis Center
Tue 02:32:39 PM 37.1328 -84.2344 167° South 461 531 35,000  Level Indianapolis Center
Tue 02:33:41 PM 37.0075 -84.2003 168° South 462 532 35,000  Level Indianapolis Center
Tue 02:34:43 PM 36.8814 -84.1644 167° South 463 533 35,000  Level Indianapolis Center
Tue 02:35:44 PM 36.7553 -84.1294 167° South 464 534 35,000  Level Indianapolis Center
Tue 02:36:46 PM 36.6103 -84.0886 167° South 460 529 35,000  Level Indianapolis Center
Tue 02:37:07 PM 36.5672 -84.0800 171° South 468 539 35,000  Level Atlanta Center
Tue 02:38:07 PM 36.4544 -84.0492 168° South 468 539 35,000 -250 Level Atlanta Center
Tue 02:39:07 PM 36.3294 -84.0131 167° South 468 539 34,500 -750 Descending Atlanta Center
Tue 02:40:07 PM 36.2022 -83.9769 167° South 468 539 33,500 -800 Descending Atlanta Center
Tue 02:41:07 PM 36.0769 -83.9436 168° South 468 539 32,900 -750 Descending Atlanta Center
Tue 02:42:07 PM 35.9478 -83.9081 167° South 468 539 32,000 -900 Descending Atlanta Center
Tue 02:43:07 PM 35.8203 -83.8747 168° South 468 539 31,100 -1,500 Descending Atlanta Center
Tue 02:44:07 PM 35.6869 -83.8494 171° South 473 544 29,000 -2,050 Descending Atlanta Center
Tue 02:45:07 PM 35.5553 -83.8217 170° South 478 550 27,000 -2,000 Descending Atlanta Center
Tue 02:46:07 PM 35.4300 -83.7967 171° South 478 550 25,000 -1,800 Descending Atlanta Center
Tue 02:47:07 PM 35.3069 -83.7689 170° South 468 539 23,400 -1,500 Descending Atlanta Center
Tue 02:48:07 PM 35.1881 -83.7464 171° South 450 518 22,000 -1,400 Descending Atlanta Center
Tue 02:49:07 PM 35.0711 -83.7189 169° South 439 505 20,600 -1,400 Descending Atlanta Center
Tue 02:50:07 PM 34.9583 -83.7322 186° South 427 491 19,200 -1,400 Descending Atlanta Center
Tue 02:51:07 PM 34.8522 -83.7831 201° Southwest 404 465 17,800 -1,200 Descending Atlanta Center
Tue 02:52:07 PM 34.7478 -83.8417 205° Southwest 417 480 16,800 -1,450 Descending Atlanta Center
Tue 02:53:07 PM 34.6478 -83.8975 205° Southwest 412 474 14,900 -2,000 Descending Atlanta Center
Tue 02:54:07 PM 34.5497 -83.9481 203° Southwest 398 458 12,800 -1,950 Descending Atlanta Center
Tue 02:55:07 PM 34.4622 -83.9961 204° Southwest 364 419 11,000 -1,750 Descending Atlanta Center
Tue 02:56:07 PM 34.3850 -84.0389 205° Southwest 325 374 9,300 -1,500 Descending Atlanta Center
Tue 02:57:07 PM 34.3036 -84.0792 202° Southwest 303 349 8,000 -750 Descending Atlanta Center
Tue 02:58:07 PM 34.2472 -84.1092 204° Southwest 256 295 7,800 -650 Descending Atlanta Center
Tue 02:59:07 PM 34.1950 -84.1367 204° Southwest 212 244 6,700 -1,150 Descending Atlanta Center
Tue 03:00:07 PM 34.1469 -84.1617 203° Southwest 199 229 5,500 -850 Descending Atlanta Center
Tue 03:01:07 PM 34.0989 -84.1892 205° Southwest 194 223 5,000 -650 Descending Atlanta Center
Tue 03:02:07 PM 34.0508 -84.2119 201° Southwest 194 223 4,200 -950 Descending Atlanta Center
Tue 03:03:07 PM 34.0028 -84.2342 201° Southwest 189 217 3,100 -650 Descending Atlanta Center
Tue 03:04:07 PM 33.9631 -84.2617 210° Southwest 181 208 2,900 -450 Descending Atlanta Center
Tue 03:05:07 PM 33.9297 -84.2792 204° Southwest 160 184 2,200 -700 Descending Atlanta Center
Tue 03:07:00 PM 33.8756 -84.3020 209° Southwest  Level Estimated
Tue 03:14:00 PM 33.8756 -84.3020 209° Southwest  Level Estimated

Login

Don't have an account? Register now (free) for customized features, flight alerts, and more!